Flight Track Log - Related Links

Times and Time Zones

All times are in EDT time to prevent confusion due to time zone crossing. See the EJA820 flight status page for this flight to view local times or setup timezone preferences in your user account.

Time Position Orientation Groundspeed Altitude Reporting Facility
EDT Latitude Longitude Course Direction KTS MPH feet Rate Location/Type
Tue 12:19:33 PM 32.9481 -79.9269 30° Northeast 212 244 5,600  Level Jacksonville Center
Tue 12:20:33 PM 32.9753 -79.8419 69° East 238 274 8,200 2,200 Climbing Jacksonville Center
Tue 12:21:33 PM 33.0042 -79.7444 71° East 274 315 10,000 2,050 Climbing Jacksonville Center
Tue 12:22:33 PM 33.0517 -79.6486 59° Northeast 311 358 12,300 2,600 Climbing Jacksonville Center
Tue 12:23:33 PM 33.0994 -79.5575 58° Northeast 319 367 15,200 2,650 Climbing Jacksonville Center
Tue 12:24:00 PM 33.2307 -79.3452 30° Northeast  Level FlightAware Approximate
Tue 12:24:33 PM 33.1572 -79.4561 56° Northeast 330 380 17,600  Level Jacksonville Center
Tue 12:25:33 PM 33.2197 -79.3719 48° Northeast 335 386 19,300 1,850 Climbing Jacksonville Center
Tue 12:26:33 PM 33.2972 -79.3092 34° Northeast 328 377 21,300 1,800 Climbing Jacksonville Center
Tue 12:27:33 PM 33.3767 -79.2436 35° Northeast 333 383 22,900 1,300 Climbing Jacksonville Center
Tue 12:28:33 PM 33.4622 -79.1731 35° Northeast 347 399 23,900 1,150 Climbing Jacksonville Center
Tue 12:29:33 PM 33.5356 -79.1128 34° Northeast 352 405 25,200 1,600 Climbing Jacksonville Center
Tue 12:30:33 PM 33.6233 -79.0417 34° Northeast 365 420 27,100 1,950 Climbing Jacksonville Center
Tue 12:31:33 PM 33.7047 -78.9756 34° Northeast 365 420 29,100 1,950 Climbing Jacksonville Center
Tue 12:32:33 PM 33.7839 -78.9072 36° Northeast 360 414 31,000 1,750 Climbing Jacksonville Center
Tue 12:34:45 PM 33.9481 -78.7761 34° Northeast 330 380 34,700 1,500 Climbing Washington Center
Tue 12:35:45 PM 34.0206 -78.7111 37° Northeast 323 372 35,800 800 Climbing Washington Center
Tue 12:36:45 PM 34.1017 -78.6442 34° Northeast 323 372 36,300 500 Climbing Washington Center
Tue 12:37:45 PM 34.1847 -78.5769 34° Northeast 339 390 36,800 350 Climbing Washington Center
Tue 12:38:45 PM 34.2719 -78.5022 35° Northeast 358 412 37,000 100 Climbing Washington Center
Tue 12:39:45 PM 34.3636 -78.4247 35° Northeast 383 441 37,000 300 Level Washington Center
Tue 12:40:45 PM 34.4658 -78.3403 34° Northeast 393 452 37,600 500 Climbing Washington Center
Tue 12:41:45 PM 34.5594 -78.2628 34° Northeast 398 458 38,000 200 Climbing Washington Center
Tue 12:42:45 PM 34.6508 -78.1822 36° Northeast 398 458 38,000  Level Washington Center
Tue 12:43:45 PM 34.7444 -78.1019 35° Northeast 404 465 38,000  Level Washington Center
Tue 12:44:45 PM 34.8378 -78.0186 36° Northeast 404 465 38,000  Level Washington Center
Tue 12:45:45 PM 34.9333 -77.9356 35° Northeast 414 476 38,000  Level Washington Center
Tue 12:46:45 PM 35.0247 -77.8569 35° Northeast 414 476 38,000  Level Washington Center
Tue 12:47:45 PM 35.1200 -77.7733 36° Northeast 414 476 38,000  Level Washington Center
Tue 12:48:45 PM 35.2133 -77.6944 35° Northeast 414 476 38,000 150 Level Washington Center
Tue 12:49:45 PM 35.3064 -77.6156 35° Northeast 414 476 38,300 950 Climbing Washington Center
Tue 12:50:45 PM 35.3975 -77.5361 35° Northeast 404 465 39,900 1,350 Climbing Washington Center
Tue 12:51:45 PM 35.4822 -77.4617 36° Northeast 393 452 41,000 550 Climbing Washington Center
Tue 12:52:45 PM 35.5689 -77.3872 35° Northeast 385 443 41,000  Level Washington Center
Tue 12:53:45 PM 35.6578 -77.3075 36° Northeast 390 449 41,000  Level Washington Center
Tue 12:54:45 PM 35.7547 -77.2250 35° Northeast 402 463 41,000  Level Washington Center
Tue 12:55:45 PM 35.8497 -77.1372 37° Northeast 412 474 41,000  Level Washington Center
Tue 12:56:45 PM 35.9364 -77.0594 36° Northeast 422 486 41,000  Level Washington Center
Tue 12:57:45 PM 36.0356 -76.9714 36° Northeast 427 491 41,000  Level Washington Center
Tue 12:58:45 PM 36.1450 -76.8781 35° Northeast 427 491 41,000  Level Washington Center
Tue 12:59:45 PM 36.2439 -76.7894 36° Northeast 432 497 41,000  Level Washington Center
Tue 01:00:45 PM 36.3428 -76.6983 37° Northeast 432 497 41,000  Level Washington Center
Tue 01:01:45 PM 36.4417 -76.6092 36° Northeast 432 497 41,000  Level Washington Center
Tue 01:02:45 PM 36.5425 -76.5200 35° Northeast 432 497 41,000  Level Washington Center
Tue 01:03:45 PM 36.6433 -76.4306 35° Northeast 432 497 41,000  Level Washington Center
Tue 01:04:45 PM 36.7294 -76.3461 38° Northeast 432 497 41,000  Level Washington Center
Tue 01:05:45 PM 36.8281 -76.2561 36° Northeast 432 497 41,000  Level Washington Center
Tue 01:06:45 PM 36.9328 -76.1739 32° Northeast 432 497 41,000  Level Washington Center
Tue 01:07:45 PM 37.0625 -76.1150 20° North 437 503 41,000  Level Washington Center
Tue 01:08:45 PM 37.1733 -76.0558 23° Northeast 432 497 41,000  Level Washington Center
Tue 01:09:45 PM 37.2861 -75.9964 23° Northeast 432 497 41,000  Level Washington Center
Tue 01:10:45 PM 37.3969 -75.9342 24° Northeast 432 497 41,000  Level Washington Center
Tue 01:11:45 PM 37.5117 -75.8747 22° Northeast 437 503 41,000  Level Washington Center
Tue 01:12:45 PM 37.6183 -75.8017 28° Northeast 437 503 41,000  Level Washington Center
Tue 01:13:45 PM 37.7247 -75.7206 31° Northeast 437 503 41,000  Level Washington Center
Tue 01:14:45 PM 37.8269 -75.6444 30° Northeast 437 503 41,000  Level Washington Center
Tue 01:15:45 PM 37.9333 -75.5656 30° Northeast 437 503 41,000  Level Washington Center
Tue 01:16:45 PM 38.0397 -75.4836 31° Northeast 437 503 41,000  Level Washington Center
Tue 01:17:45 PM 38.1500 -75.4122 27° Northeast 437 503 41,000  Level Washington Center
Tue 01:18:45 PM 38.2625 -75.3458 25° Northeast 437 503 41,000 -150 Level Washington Center
Tue 01:19:45 PM 38.3583 -75.2767 30° Northeast 437 503 40,700 -600 Descending Washington Center
Tue 01:20:45 PM 38.4706 -75.2044 27° Northeast 437 503 39,800 -900 Descending Washington Center
Tue 01:21:45 PM 38.5850 -75.1322 26° Northeast 443 510 38,900 -950 Descending Washington Center
Tue 01:22:45 PM 38.6994 -75.0597 26° Northeast 448 516 37,900 -950 Descending Washington Center
Tue 01:23:45 PM 38.8178 -74.9842 26° Northeast 453 521 37,000 -450 Descending Washington Center
Tue 01:24:45 PM 38.9383 -74.9083 26° Northeast 458 527 37,000 -300 Level Washington Center
Tue 01:25:45 PM 39.0547 -74.8272 28° Northeast 464 534 36,400 -900 Descending Washington Center
Tue 01:26:45 PM 39.1622 -74.7003 42° Northeast 479 551 35,200 -2,061 Descending Washington Center
Tue 01:28:28 PM 39.3003 -74.4919 49° Northeast 457 526 30,800 -2,778 Descending New York Center
Tue 01:29:27 PM 39.3706 -74.3803 51° Northeast 431 496 27,700 -3,126 Descending New York Center
Tue 01:30:27 PM 39.4469 -74.2631 50° Northeast 424 488 24,600 -2,550 Descending New York Center
Tue 01:31:27 PM 39.5150 -74.1508 52° Northeast 411 473 22,600 -1,785 Descending New York Center
Tue 01:32:28 PM 39.5889 -74.0411 49° Northeast 411 473 21,000 -1,033 Descending New York Center
Tue 01:33:29 PM 39.6586 -73.9283 51° Northeast 411 473 20,500 -706 Descending New York Center
Tue 01:34:27 PM 39.7283 -73.8183 50° Northeast 406 467 19,600 -763 Descending New York Center
Tue 01:35:27 PM 39.7978 -73.7078 51° Northeast 395 455 19,000 -298 Descending New York Center
Tue 01:36:28 PM 39.8447 -73.5772 65° Northeast 387 445 19,000 -446 Level New York Center
Tue 01:37:28 PM 39.8858 -73.4328 70° East 387 445 18,100 -843 Descending New York Center
Tue 01:38:29 PM 39.9219 -73.3017 70° East 387 445 17,300 -977 Descending New York Center
Tue 01:41:03 PM 40.0481 -73.0500 57° Northeast 353 406 14,600 -1,262 Descending Boston Center
Tue 01:42:03 PM 40.1236 -72.9447 47° Northeast 334 384 12,800 -1,835 Descending Boston Center
Tue 01:43:04 PM 40.1928 -72.8692 40° Northeast 317 365 10,900 -847 Descending Boston Center
Tue 01:45:00 PM 40.3500 -72.8000 19° North 301 346 10,300 -545 Descending New York TRACON
Tue 01:46:00 PM 40.4333 -72.7667 17° North 283 326 9,300 -1,286 Descending New York TRACON
Tue 01:47:06 PM 40.5167 -72.7333 17° North 271 312 7,600 -1,476 Descending New York TRACON
Tue 01:48:06 PM 40.5833 -72.7333 360° North 274 315 6,200 -1,409 Descending New York TRACON
Tue 01:49:01 PM 40.6500 -72.7667 339° North 272 313 4,900 -1,091 Descending New York TRACON
Tue 01:50:07 PM 40.7167 -72.8000 339° North 263 303 4,000 -429 Descending New York TRACON
Tue 01:51:07 PM 40.8000 -72.8333 343° North 268 308 4,000  Level New York TRACON
Tue 01:52:07 PM 40.8667 -72.8833 330° Northwest 259 298 4,000  Level New York TRACON
Tue 01:53:01 PM 40.9167 -72.9167 333° Northwest 246 283 4,000 -400 Level New York TRACON
Tue 01:54:07 PM 40.9667 -72.9833 315° West 243 280 3,200 -476 Descending New York TRACON
Tue 01:55:07 PM 41.0333 -73.0333 331° Northwest 238 274 3,000 -105 Descending New York TRACON
Tue 01:56:01 PM 41.0833 -73.0500 346° North 237 273 3,000  Level New York TRACON
Tue 01:57:07 PM 41.1500 -73.0667 349° North 234 269 3,000  Level New York TRACON
Tue 01:58:08 PM 41.2167 -73.0833 349° North 244 281 3,000  Level New York TRACON
Tue 01:59:08 PM 41.2833 -73.1000 349° North 250 288 3,000  Level New York TRACON

Login

Don't have an account? Register now (free) for customized features, flight alerts, and more!